Time;durP1;ratioP1;P1;durP2;ratioP2;P2;SDS_P1;SDS_P2;PMS_P1;PMS_P2;Temp;Humidity;BMP_temperature;BMP_pressure;BME280_temperature;BME280_humidity;BME280_pressure;Samples;Min_cycle;Max_cycle;Signal;HPM_P1;HPM_P2
2023/08/09 00:00:31;;;;;;;6.82;1.88;;;11.40;91.20;;;;;;5056772;28;20028;-49
2023/08/09 00:03:04;;;;;;;6.38;1.90;;;11.40;91.40;;;;;;5053016;28;20053;-49
2023/08/09 00:05:31;;;;;;;8.48;2.60;;;11.40;91.60;;;;;;5035966;28;20112;-51
2023/08/09 00:07:59;;;;;;;6.55;1.90;;;11.50;91.70;;;;;;5067755;28;20043;-51
2023/08/09 00:10:26;;;;;;;7.60;1.90;;;11.50;91.70;;;;;;5054818;28;20033;-48
2023/08/09 00:12:53;;;;;;;12.40;1.98;;;11.60;91.80;;;;;;5055376;28;20036;-49
2023/08/09 00:15:19;;;;;;;7.38;1.77;;;11.60;91.80;;;;;;5072390;28;20036;-53
2023/08/09 00:17:45;;;;;;;8.25;1.92;;;11.60;91.90;;;;;;5074039;28;20544;-50
2023/08/09 00:20:13;;;;;;;8.82;2.30;;;11.70;92.00;;;;;;5055291;28;20035;-50
2023/08/09 00:22:41;;;;;;;7.28;1.80;;;11.70;91.90;;;;;;5073042;28;20386;-50
2023/08/09 00:25:10;;;;;;;10.02;2.38;;;11.70;92.00;;;;;;5037466;28;20033;-48
2023/08/09 00:27:40;;;;;;;5.35;2.33;;;11.70;92.00;;;;;;5073029;28;20025;-51
2023/08/09 00:30:14;;;;;;;5.88;2.10;;;11.70;92.20;;;;;;5071253;28;20101;-51
2023/08/09 00:32:42;;;;;;;14.45;2.63;;;11.70;92.20;;;;;;5050713;28;20028;-49
2023/08/09 00:35:12;;;;;;;7.10;2.15;;;11.70;92.20;;;;;;5070580;28;20129;-48
2023/08/09 00:37:43;;;;;;;10.23;2.47;;;11.70;92.20;;;;;;5073161;28;20029;-48
2023/08/09 00:40:12;;;;;;;5.63;2.38;;;11.70;92.20;;;;;;5069136;28;20032;-47
2023/08/09 00:42:41;;;;;;;6.23;2.33;;;11.70;92.20;;;;;;5072254;28;20036;-50
2023/08/09 00:45:12;;;;;;;12.60;2.22;;;11.60;92.20;;;;;;5071420;28;20024;-49
2023/08/09 00:47:41;;;;;;;7.57;1.90;;;11.60;92.30;;;;;;5050400;28;20037;-47
2023/08/09 00:50:07;;;;;;;;;;;11.60;92.30;;;;;;5067228;28;20032;-47
2023/08/09 00:52:35;;;;;;;7.63;2.55;;;11.50;92.20;;;;;;5072203;28;20344;-47
2023/08/09 00:55:05;;;;;;;5.10;1.40;;;11.50;92.30;;;;;;5053547;28;20021;-47
2023/08/09 00:57:32;;;;;;;;;;;11.50;92.40;;;;;;5072115;28;20036;-47
2023/08/09 00:59:59;;;;;;;5.78;1.73;;;11.50;92.40;;;;;;5055123;28;19912;-46
2023/08/09 01:02:26;;;;;;;10.80;2.33;;;11.50;92.50;;;;;;5067542;28;20024;-47
2023/08/09 01:04:58;;;;;;;12.25;1.92;;;11.40;92.50;;;;;;5072968;28;20036;-47
2023/08/09 01:07:48;;;;;;;4.80;1.50;;;11.40;92.60;;;;;;5072218;28;20048;-48
2023/08/09 01:10:27;;;;;;;5.28;1.55;;;11.40;92.70;;;;;;5058742;28;20024;-46
2023/08/09 01:12:58;;;;;;;7.30;1.75;;;11.40;92.70;;;;;;5070926;28;20851;-47
2023/08/09 01:15:28;;;;;;;8.38;1.70;;;11.50;92.90;;;;;;5071653;28;20173;-47
2023/08/09 01:17:58;;;;;;;5.53;1.83;;;11.50;93.00;;;;;;5053614;28;20028;-47
2023/08/09 01:20:25;;;;;;;8.20;2.45;;;11.50;93.10;;;;;;5071695;28;20039;-51
2023/08/09 01:23:11;;;;;;;9.63;2.22;;;11.60;93.10;;;;;;5072483;28;20074;-54
2023/08/09 01:25:38;;;;;;;8.75;2.10;;;11.60;93.30;;;;;;5067415;28;20013;-58
2023/08/09 01:28:08;;;;;;;8.02;2.17;;;11.70;93.50;;;;;;5069956;28;20037;-55
2023/08/09 01:30:36;;;;;;;5.72;1.52;;;11.80;93.80;;;;;;5062091;28;20111;-51
2023/08/09 01:33:04;;;;;;;6.78;2.22;;;11.90;94.00;;;;;;5060813;28;20033;-50
2023/08/09 01:35:36;;;;;;;8.98;2.00;;;11.90;93.90;;;;;;5070683;28;20123;-49
2023/08/09 01:38:12;;;;;;;10.73;2.30;;;11.90;93.90;;;;;;5053229;28;20040;-48
2023/08/09 01:40:40;;;;;;;9.70;1.98;;;11.90;93.90;;;;;;5039322;28;20037;-49
2023/08/09 01:43:07;;;;;;;3.95;1.70;;;11.90;93.80;;;;;;5056433;28;20485;-52
2023/08/09 01:45:35;;;;;;;7.68;1.80;;;11.90;93.80;;;;;;5062636;28;20120;-48
2023/08/09 01:48:02;;;;;;;4.38;2.05;;;11.90;93.70;;;;;;5070159;28;20410;-48
2023/08/09 01:50:29;;;;;;;6.35;1.92;;;11.90;93.50;;;;;;5070876;28;20032;-48
2023/08/09 01:52:58;;;;;;;5.47;1.80;;;11.80;93.30;;;;;;5071369;28;20028;-47
2023/08/09 01:55:26;;;;;;;8.50;2.60;;;11.80;93.50;;;;;;5070946;28;20032;-50
2023/08/09 01:57:52;;;;;;;5.35;2.00;;;11.80;93.60;;;;;;5070626;28;20093;-50
2023/08/09 02:00:19;;;;;;;5.78;1.85;;;11.80;93.50;;;;;;5070696;28;20642;-48
2023/08/09 02:02:47;;;;;;;6.97;2.30;;;11.70;93.30;;;;;;5069519;28;20021;-47
2023/08/09 02:05:14;;;;;;;8.73;1.90;;;11.80;93.40;;;;;;5071911;28;20028;-47
2023/08/09 02:07:41;;;;;;;5.82;1.80;;;11.80;93.40;;;;;;5070573;28;20058;-47
2023/08/09 02:10:10;;;;;;;7.50;2.70;;;11.80;93.30;;;;;;5071853;28;20477;-49
2023/08/09 02:12:38;;;;;;;3.35;1.80;;;11.70;93.30;;;;;;5069839;28;20020;-47
2023/08/09 02:15:07;;;;;;;4.13;1.67;;;11.70;93.30;;;;;;5070501;28;20301;-50
2023/08/09 02:17:35;;;;;;;9.75;2.38;;;11.70;93.30;;;;;;5071877;28;20024;-47
2023/08/09 02:20:04;;;;;;;10.43;2.13;;;11.70;93.20;;;;;;5064604;28;20029;-49
2023/08/09 02:22:43;;;;;;;6.82;1.65;;;11.70;93.20;;;;;;5070553;28;20024;-47
2023/08/09 02:25:17;;;;;;;6.45;2.20;;;11.70;93.20;;;;;;5071785;28;20048;-47
2023/08/09 02:27:43;;;;;;;4.78;2.15;;;11.60;93.00;;;;;;5059936;28;20041;-47
2023/08/09 02:30:12;;;;;;;7.20;2.30;;;11.60;93.10;;;;;;5048874;28;20476;-49
2023/08/09 02:32:39;;;;;;;3.00;1.63;;;11.60;93.20;;;;;;5058770;28;20446;-52
2023/08/09 02:35:06;;;;;;;6.75;2.10;;;11.60;93.30;;;;;;5075093;28;20028;-51
2023/08/09 02:37:36;;;;;;;10.85;4.40;;;11.60;93.40;;;;;;5095961;28;20622;-49
2023/08/09 02:40:04;;;;;;;6.97;1.98;;;11.60;93.30;;;;;;5092650;28;20039;-50
2023/08/09 02:42:31;;;;;;;8.55;2.90;;;11.60;93.40;;;;;;5095182;28;20024;-49
2023/08/09 02:44:57;;;;;;;5.75;1.83;;;11.60;93.60;;;;;;5094823;28;20032;-51
2023/08/09 02:47:24;;;;;;;7.20;1.77;;;11.70;93.60;;;;;;5060499;28;20028;-49
2023/08/09 02:49:51;;;;;;;4.90;1.98;;;11.60;93.60;;;;;;5076511;28;20028;-48
2023/08/09 02:52:17;;;;;;;12.15;2.72;;;11.60;93.50;;;;;;5095516;28;20016;-47
2023/08/09 02:54:44;;;;;;;3.78;1.92;;;11.60;93.50;;;;;;5095358;28;20102;-49
2023/08/09 02:57:11;;;;;;;5.82;2.28;;;11.60;93.50;;;;;;5076306;28;20032;-47
2023/08/09 02:59:41;;;;;;;6.82;2.80;;;11.60;93.40;;;;;;5094551;28;20036;-48
2023/08/09 03:02:11;;;;;;;7.32;2.00;;;11.60;93.40;;;;;;5094081;28;20036;-48
2023/08/09 03:04:38;;;;;;;9.20;2.72;;;11.50;93.30;;;;;;5090027;28;20028;-48
2023/08/09 03:07:07;;;;;;;5.05;2.10;;;11.50;93.20;;;;;;5094115;28;20038;-47
2023/08/09 03:09:34;;;;;;;7.15;2.00;;;11.50;93.20;;;;;;5091784;28;20098;-47
2023/08/09 03:12:02;;;;;;;5.68;1.75;;;11.40;93.30;;;;;;5089904;28;20413;-47
2023/08/09 03:14:28;;;;;;;5.30;1.98;;;11.50;93.20;;;;;;5084025;28;20039;-47
2023/08/09 03:16:56;;;;;;;7.28;2.22;;;11.40;93.00;;;;;;5076499;28;20032;-50
2023/08/09 03:19:26;;;;;;;6.43;1.98;;;11.40;93.10;;;;;;5077408;28;20024;-48
2023/08/09 03:21:53;;;;;;;4.70;1.67;;;11.40;93.00;;;;;;5093845;28;20032;-47
2023/08/09 03:24:19;;;;;;;5.22;1.67;;;11.40;93.20;;;;;;5095027;28;20102;-47
2023/08/09 03:26:49;;;;;;;4.95;1.92;;;11.40;93.20;;;;;;5094045;28;20020;-47
2023/08/09 03:29:15;;;;;;;6.03;1.63;;;11.40;93.20;;;;;;5077167;28;20060;-48
2023/08/09 03:31:42;;;;;;;6.18;2.08;;;11.40;93.40;;;;;;5092509;28;20040;-47
2023/08/09 03:34:09;;;;;;;8.90;2.10;;;11.40;93.40;;;;;;5094661;28;20027;-47
2023/08/09 03:36:37;;;;;;;7.72;2.33;;;11.40;93.50;;;;;;5076303;28;20098;-50
2023/08/09 03:39:06;;;;;;;5.28;2.25;;;11.40;93.40;;;;;;5078634;28;20028;-51
2023/08/09 03:41:37;;;;;;;9.50;2.20;;;11.40;93.60;;;;;;5076895;28;20052;-49
2023/08/09 03:44:04;;;;;;;6.88;1.80;;;11.40;93.60;;;;;;5091882;28;20032;-49
2023/08/09 03:46:31;;;;;;;10.48;2.53;;;11.50;93.60;;;;;;5093124;28;20345;-48
2023/08/09 03:48:58;;;;;;;7.07;2.33;;;11.50;93.50;;;;;;5094111;28;20028;-48
2023/08/09 03:51:28;;;;;;;6.47;2.40;;;11.50;93.50;;;;;;5093002;28;20028;-48
2023/08/09 03:53:55;;;;;;;6.28;2.17;;;11.40;93.70;;;;;;5093012;28;20452;-47
2023/08/09 03:56:24;;;;;;;6.03;2.22;;;11.50;93.80;;;;;;5093867;28;20030;-47
2023/08/09 03:58:51;;;;;;;8.30;1.88;;;11.50;93.70;;;;;;5092474;28;20485;-48
2023/08/09 04:01:18;;;;;;;8.85;2.38;;;11.60;93.70;;;;;;5087634;28;20114;-47
2023/08/09 04:03:48;;;;;;;4.45;1.42;;;11.60;93.80;;;;;;5070910;28;20105;-48
2023/08/09 04:06:17;;;;;;;4.60;1.77;;;11.60;93.80;;;;;;5091670;28;20028;-47
2023/08/09 04:08:46;;;;;;;6.13;1.73;;;11.70;93.80;;;;;;5094104;28;20028;-47
2023/08/09 04:11:13;;;;;;;9.02;3.00;;;11.70;93.70;;;;;;5092384;28;20274;-47
2023/08/09 04:13:41;;;;;;;7.75;1.85;;;11.70;93.50;;;;;;5075569;28;20016;-47
2023/08/09 04:16:07;;;;;;;8.32;2.05;;;11.80;93.60;;;;;;5063893;28;20522;-47
2023/08/09 04:18:37;;;;;;;4.78;1.92;;;11.90;93.60;;;;;;5093958;28;20035;-47
2023/08/09 04:21:06;;;;;;;7.05;1.67;;;11.90;93.50;;;;;;5093150;28;20028;-48
2023/08/09 04:23:34;;;;;;;5.47;1.67;;;11.90;93.50;;;;;;5093098;28;20024;-47
2023/08/09 04:26:02;;;;;;;7.38;1.60;;;11.90;93.40;;;;;;5091958;28;20024;-47
2023/08/09 04:28:29;;;;;;;5.32;1.42;;;11.90;93.40;;;;;;5093970;28;20012;-49
2023/08/09 04:30:57;;;;;;;5.45;1.23;;;12.00;93.40;;;;;;5091387;28;20111;-48
2023/08/09 04:33:24;;;;;;;5.82;1.48;;;12.10;92.90;;;;;;5093807;28;20081;-50
2023/08/09 04:35:52;;;;;;;8.45;1.17;;;12.10;92.00;;;;;;5092187;28;20473;-48
2023/08/09 04:38:18;;;;;;;3.53;1.23;;;12.10;90.90;;;;;;5092406;28;20036;-47
2023/08/09 04:40:45;;;;;;;5.00;1.40;;;12.10;90.70;;;;;;5086750;28;20119;-47
2023/08/09 04:43:14;;;;;;;4.60;1.30;;;12.20;91.00;;;;;;5073617;28;20087;-50
2023/08/09 04:45:41;;;;;;;4.57;1.30;;;12.30;91.20;;;;;;5087406;28;20028;-47
2023/08/09 04:48:15;;;;;;;10.60;1.50;;;12.30;91.30;;;;;;5086487;28;20474;-47
2023/08/09 04:50:42;;;;;;;2.92;1.20;;;12.30;91.50;;;;;;5073964;28;20024;-47
2023/08/09 04:53:09;;;;;;;4.55;1.65;;;12.30;91.70;;;;;;5073914;28;20068;-47
2023/08/09 04:55:36;;;;;;;9.52;2.13;;;12.40;91.90;;;;;;5092201;28;20035;-47
2023/08/09 04:58:06;;;;;;;7.05;1.10;;;12.40;92.20;;;;;;5090552;28;20068;-47
2023/08/09 05:00:32;;;;;;;5.70;1.73;;;12.40;92.30;;;;;;5092360;28;20441;-48
2023/08/09 05:02:59;;;;;;;3.75;1.52;;;12.40;92.40;;;;;;5092944;28;20036;-47
2023/08/09 05:05:28;;;;;;;3.92;1.50;;;12.40;92.50;;;;;;5091895;28;20064;-49
2023/08/09 05:07:54;;;;;;;9.65;1.88;;;12.50;92.50;;;;;;5076701;28;20048;-48
2023/08/09 05:10:21;;;;;;;4.82;1.77;;;12.50;92.60;;;;;;5085450;28;20051;-47
2023/08/09 05:12:50;;;;;;;5.05;1.50;;;12.40;92.70;;;;;;5092048;28;20028;-48
2023/08/09 05:15:17;;;;;;;4.32;2.47;;;12.40;92.60;;;;;;5090285;28;20027;-47
2023/08/09 05:17:44;;;;;;;7.38;2.35;;;12.40;92.70;;;;;;5092168;28;20169;-47
2023/08/09 05:20:11;;;;;;;8.63;2.10;;;12.40;92.60;;;;;;5093024;28;20088;-48
2023/08/09 05:22:38;;;;;;;9.77;1.95;;;12.40;92.70;;;;;;5092754;28;20052;-47
2023/08/09 05:25:05;;;;;;;12.30;2.58;;;12.40;92.60;;;;;;5071156;28;20346;-48
2023/08/09 05:27:32;;;;;;;4.15;1.67;;;12.40;92.60;;;;;;5074721;28;20043;-48
2023/08/09 05:29:58;;;;;;;6.72;2.33;;;12.40;92.70;;;;;;5090442;28;20024;-47
2023/08/09 05:32:25;;;;;;;4.28;1.60;;;12.40;92.80;;;;;;5091940;28;20468;-46
2023/08/09 05:34:52;;;;;;;4.65;1.42;;;12.50;92.90;;;;;;5088408;28;20036;-47
2023/08/09 05:37:18;;;;;;;5.22;1.60;;;12.60;93.00;;;;;;5088808;28;20048;-47
2023/08/09 05:39:45;;;;;;;6.80;1.90;;;12.60;92.80;;;;;;5069921;28;20038;-47
2023/08/09 05:42:12;;;;;;;7.35;2.45;;;12.60;92.80;;;;;;5091246;28;20077;-47
2023/08/09 05:44:39;;;;;;;7.25;2.13;;;12.70;92.70;;;;;;5074718;28;20028;-47
2023/08/09 05:47:06;;;;;;;5.80;1.55;;;12.70;92.60;;;;;;5091501;28;20071;-47
2023/08/09 05:49:33;;;;;;;6.03;1.63;;;12.70;92.60;;;;;;5091713;28;20089;-47
2023/08/09 05:51:59;;;;;;;9.13;1.92;;;12.80;92.80;;;;;;5091760;28;20492;-47
2023/08/09 05:54:25;;;;;;;6.07;2.10;;;12.90;92.90;;;;;;5070115;28;20094;-47
2023/08/09 05:56:54;;;;;;;4.57;1.63;;;13.00;92.90;;;;;;5089475;28;20062;-48
2023/08/09 05:59:24;;;;;;;8.70;1.90;;;13.00;92.80;;;;;;5088916;28;20036;-50
2023/08/09 06:01:52;;;;;;;6.20;1.80;;;13.10;92.70;;;;;;5090289;28;20039;-47
2023/08/09 06:04:19;;;;;;;4.95;1.70;;;13.10;92.60;;;;;;5074419;28;20032;-47
2023/08/09 06:06:46;;;;;;;5.47;2.03;;;13.10;92.40;;;;;;5089386;28;20028;-47
2023/08/09 06:09:15;;;;;;;8.57;2.08;;;13.10;92.50;;;;;;5091282;28;20360;-49
2023/08/09 06:11:42;;;;;;;9.95;3.13;;;13.20;92.50;;;;;;5090559;28;20028;-47
2023/08/09 06:14:09;;;;;;;6.10;2.28;;;13.40;92.80;;;;;;5077964;28;20028;-49
2023/08/09 06:16:36;;;;;;;7.57;2.40;;;13.50;92.60;;;;;;5064417;28;20535;-48
2023/08/09 06:19:03;;;;;;;6.65;2.10;;;13.60;92.50;;;;;;5082869;28;20083;-50
2023/08/09 06:21:31;;;;;;;11.43;1.95;;;13.80;92.60;;;;;;5077337;28;20107;-48
2023/08/09 06:23:58;;;;;;;6.03;2.05;;;13.90;92.40;;;;;;5077737;28;20594;-51
2023/08/09 06:26:25;;;;;;;4.85;1.50;;;14.10;92.10;;;;;;5084910;28;20029;-49
2023/08/09 06:28:52;;;;;;;7.10;1.77;;;14.30;91.80;;;;;;5081241;28;20055;-50
2023/08/09 06:31:19;;;;;;;6.35;1.90;;;14.20;91.10;;;;;;5075856;28;20024;-49
2023/08/09 06:33:49;;;;;;;4.78;1.58;;;14.10;90.80;;;;;;5083050;28;20032;-50
2023/08/09 06:36:19;;;;;;;;;;;14.00;90.40;;;;;;5084799;28;20127;-49
2023/08/09 06:38:49;;;;;;;7.22;1.65;;;14.10;90.50;;;;;;5071597;28;19908;-51
2023/08/09 06:41:16;;;;;;;5.05;1.50;;;14.00;90.50;;;;;;5064086;28;20028;-50
2023/08/09 06:43:42;;;;;;;4.82;1.75;;;14.10;90.80;;;;;;5087705;28;20106;-50
2023/08/09 06:46:09;;;;;;;7.68;2.08;;;14.20;90.80;;;;;;5079550;28;20032;-51
2023/08/09 06:48:36;;;;;;;9.05;2.08;;;14.30;90.90;;;;;;5069527;28;20029;-52
2023/08/09 06:51:05;;;;;;;7.45;2.03;;;14.40;91.10;;;;;;5079200;28;20341;-50
2023/08/09 06:53:34;;;;;;;5.82;1.77;;;14.50;91.10;;;;;;5073318;28;20028;-54
2023/08/09 06:56:01;;;;;;;4.97;1.55;;;14.50;91.10;;;;;;5087718;28;20032;-49
2023/08/09 06:58:28;;;;;;;8.68;1.85;;;14.70;91.60;;;;;;5079015;28;20031;-53
2023/08/09 07:00:54;;;;;;;7.88;2.25;;;14.90;91.20;;;;;;5079016;28;20020;-53
2023/08/09 07:03:20;;;;;;;7.72;1.95;;;15.00;90.70;;;;;;5079919;28;20021;-50
2023/08/09 07:05:47;;;;;;;5.68;1.40;;;14.90;90.50;;;;;;5076346;28;20900;-49
2023/08/09 07:08:14;;;;;;;6.70;1.48;;;14.90;90.20;;;;;;5071809;28;20485;-50
2023/08/09 07:10:41;;;;;;;8.25;2.35;;;14.90;90.00;;;;;;5075050;28;20032;-50
2023/08/09 07:13:08;;;;;;;5.45;2.22;;;14.90;90.10;;;;;;5085612;28;20020;-50
2023/08/09 07:15:37;;;;;;;7.13;1.80;;;14.90;90.30;;;;;;5082580;28;20107;-53
2023/08/09 07:18:04;;;;;;;5.03;1.45;;;14.90;90.10;;;;;;5080923;28;20104;-52
2023/08/09 07:20:31;;;;;;;6.43;1.67;;;14.90;90.20;;;;;;5063165;28;20484;-52
2023/08/09 07:22:57;;;;;;;5.43;2.25;;;15.00;90.40;;;;;;5082446;28;20054;-51
2023/08/09 07:25:28;;;;;;;8.32;1.80;;;15.10;90.90;;;;;;5086151;28;20032;-52
2023/08/09 07:27:56;;;;;;;7.50;2.22;;;15.40;91.00;;;;;;5080120;28;20040;-55
2023/08/09 07:30:22;;;;;;;7.55;2.38;;;15.50;91.00;;;;;;5069885;28;20111;-52
2023/08/09 07:32:49;;;;;;;5.93;1.88;;;15.50;89.30;;;;;;5066945;28;20492;-55
2023/08/09 07:35:18;;;;;;;5.93;1.63;;;15.50;88.90;;;;;;5093546;28;20032;-50
2023/08/09 07:37:46;;;;;;;4.43;2.40;;;15.60;88.90;;;;;;5082663;28;20024;-50
2023/08/09 07:40:13;;;;;;;9.00;2.08;;;15.90;88.90;;;;;;5086823;28;20475;-53
2023/08/09 07:42:45;;;;;;;5.22;1.65;;;16.20;88.10;;;;;;5085906;28;20031;-53
2023/08/09 07:45:12;;;;;;;9.68;1.50;;;16.60;87.00;;;;;;5091458;28;20024;-57
2023/08/09 07:47:40;;;;;;;4.35;1.42;;;16.80;87.00;;;;;;5066345;28;20036;-53
2023/08/09 07:50:07;;;;;;;10.13;2.00;;;17.40;87.90;;;;;;5076636;28;20021;-54
2023/08/09 07:52:34;;;;;;;8.70;1.45;;;17.70;84.60;;;;;;5080701;28;20020;-53
2023/08/09 07:55:01;;;;;;;8.55;1.77;;;17.90;84.80;;;;;;5081423;28;20097;-57
2023/08/09 07:57:26;;;;;;;5.28;1.67;;;17.90;81.70;;;;;;5084460;28;20035;-52
2023/08/09 07:59:53;;;;;;;7.80;1.83;;;17.60;82.10;;;;;;5082702;28;20035;-53
2023/08/09 08:02:24;;;;;;;6.10;1.48;;;17.60;82.60;;;;;;5084328;28;20035;-53
2023/08/09 08:04:52;;;;;;;7.90;2.00;;;17.50;82.20;;;;;;5083745;28;20035;-56
2023/08/09 08:07:18;;;;;;;4.68;1.52;;;17.70;83.00;;;;;;5082658;28;20028;-54
2023/08/09 08:09:45;;;;;;;4.88;1.30;;;17.90;81.40;;;;;;5086717;28;20693;-55
2023/08/09 08:12:11;;;;;;;5.80;1.42;;;17.90;81.70;;;;;;5073395;28;20027;-56
2023/08/09 08:14:38;;;;;;;7.22;1.80;;;17.80;82.50;;;;;;5086693;28;20039;-54
2023/08/09 08:17:05;;;;;;;6.70;1.45;;;18.20;83.40;;;;;;5067515;28;20069;-56
2023/08/09 08:19:31;;;;;;;8.77;2.17;;;18.20;81.10;;;;;;5082242;28;20031;-55
2023/08/09 08:21:59;;;;;;;8.98;1.92;;;18.10;80.50;;;;;;5082175;28;20679;-57
2023/08/09 08:24:26;;;;;;;5.97;1.55;;;18.00;79.60;;;;;;5073306;28;20036;-52
2023/08/09 08:26:54;;;;;;;7.30;1.55;;;17.90;76.70;;;;;;5086512;28;20032;-56
2023/08/09 08:29:23;;;;;;;10.45;2.42;;;17.60;77.50;;;;;;5079651;28;20089;-53
2023/08/09 08:31:48;;;;;;;7.95;1.70;;;17.10;76.80;;;;;;5079687;28;20029;-53
2023/08/09 08:34:15;;;;;;;5.45;1.30;;;16.70;78.80;;;;;;5068244;28;20032;-52
2023/08/09 08:36:44;;;;;;;5.25;1.58;;;16.40;80.10;;;;;;5089880;28;20457;-53
2023/08/09 08:39:14;;;;;;;10.70;1.70;;;16.20;81.40;;;;;;5074418;28;20024;-53
2023/08/09 08:41:42;;;;;;;7.32;2.38;;;16.60;83.60;;;;;;5081246;28;20357;-53
2023/08/09 08:44:11;;;;;;;8.95;2.17;;;17.10;82.30;;;;;;5072292;28;20433;-50
2023/08/09 08:46:38;;;;;;;13.48;2.13;;;17.70;79.80;;;;;;5065676;28;20061;-50
2023/08/09 08:49:06;;;;;;;17.40;3.90;;;17.90;77.30;;;;;;5081354;28;20161;-51
2023/08/09 08:51:34;;;;;;;13.43;2.75;;;17.90;76.60;;;;;;5085515;28;20027;-54
2023/08/09 08:54:01;;;;;;;10.65;2.65;;;18.40;76.30;;;;;;5079575;28;20024;-51
2023/08/09 08:56:29;;;;;;;6.00;1.70;;;18.90;76.10;;;;;;5080154;28;20020;-53
2023/08/09 08:58:56;;;;;;;8.45;1.73;;;18.50;74.10;;;;;;5066477;28;20027;-53
2023/08/09 09:01:24;;;;;;;7.80;1.65;;;17.90;73.90;;;;;;5064445;28;20426;-51
2023/08/09 09:03:53;;;;;;;6.43;1.92;;;18.10;73.70;;;;;;5091134;28;20024;-51
2023/08/09 09:06:20;;;;;;;4.05;1.20;;;18.30;73.00;;;;;;5085286;28;20453;-51
2023/08/09 09:08:52;;;;;;;7.20;2.08;;;18.00;73.90;;;;;;5091549;28;20058;-50
2023/08/09 09:11:22;;;;;;;11.18;1.60;;;17.90;75.10;;;;;;5080536;28;20448;-53
2023/08/09 09:13:50;;;;;;;7.53;1.95;;;17.60;75.90;;;;;;5072486;28;20042;-54
2023/08/09 09:16:19;;;;;;;11.70;2.63;;;17.60;77.60;;;;;;5083957;28;20055;-54
2023/08/09 09:18:48;;;;;;;7.95;2.28;;;18.30;77.50;;;;;;5085997;28;20137;-54
2023/08/09 09:21:18;;;;;;;4.95;1.67;;;18.70;74.80;;;;;;5086674;28;20126;-50
2023/08/09 09:23:47;;;;;;;7.57;1.75;;;19.20;72.30;;;;;;5068295;28;20035;-53
2023/08/09 09:26:15;;;;;;;6.20;1.83;;;19.40;70.90;;;;;;5085254;28;20066;-52
2023/08/09 09:29:00;;;;;;;7.07;1.67;;;19.60;68.50;;;;;;5079143;28;20020;-51
2023/08/09 09:31:40;;;;;;;5.82;2.03;;;19.20;69.70;;;;;;5058167;28;20032;-52
2023/08/09 09:34:09;;;;;;;3.88;1.40;;;19.40;69.30;;;;;;5085035;28;20140;-49
2023/08/09 09:36:48;;;;;;;9.77;2.25;;;19.70;68.30;;;;;;5060044;28;20056;-49
2023/08/09 09:39:15;;;;;;;3.67;1.40;;;19.70;66.00;;;;;;5063647;28;20529;-51
2023/08/09 09:41:50;;;;;;;4.78;1.67;;;19.90;67.20;;;;;;5059338;28;20319;-49
2023/08/09 09:44:28;;;;;;;5.35;1.52;;;19.60;67.00;;;;;;5059120;28;20036;-53
2023/08/09 09:46:57;;;;;;;6.07;1.35;;;19.20;67.30;;;;;;5058975;28;20331;-49
2023/08/09 09:49:26;;;;;;;4.05;1.00;;;18.90;65.70;;;;;;5058040;28;20009;-50
2023/08/09 09:51:55;;;;;;;5.15;1.90;;;18.80;66.30;;;;;;5060262;28;20067;-50
2023/08/09 09:54:23;;;;;;;5.53;1.15;;;18.80;65.60;;;;;;5067131;28;20652;-48
2023/08/09 09:56:50;;;;;;;2.20;1.05;;;18.90;66.80;;;;;;5060221;28;20062;-51
2023/08/09 09:59:20;;;;;;;6.10;1.40;;;19.30;65.30;;;;;;5065023;28;20064;-54
2023/08/09 10:01:50;;;;;;;11.13;1.58;;;18.90;65.40;;;;;;5058385;28;20063;-51
2023/08/09 10:04:19;;;;;;;;;;;18.90;66.70;;;;;;5060172;28;20051;-49
2023/08/09 10:06:47;;;;;;;3.97;1.15;;;18.90;67.30;;;;;;5047011;28;19967;-52
2023/08/09 10:09:19;;;;;;;5.22;1.42;;;18.80;66.60;;;;;;5049582;28;20362;-50
2023/08/09 10:11:50;;;;;;;5.35;1.35;;;18.90;68.40;;;;;;5046677;28;20040;-49
2023/08/09 10:14:20;;;;;;;4.80;1.27;;;19.20;65.80;;;;;;5049606;28;20408;-52
2023/08/09 10:16:50;;;;;;;3.47;1.10;;;19.10;66.00;;;;;;5056833;28;20036;-50
2023/08/09 10:19:20;;;;;;;5.28;1.10;;;19.00;65.50;;;;;;5060566;28;20439;-51
2023/08/09 10:21:48;;;;;;;5.63;1.30;;;19.20;63.70;;;;;;5066133;28;20036;-54
2023/08/09 10:24:18;;;;;;;3.85;0.95;;;19.80;65.90;;;;;;5063259;28;20068;-53
2023/08/09 10:26:49;;;;;;;5.97;1.02;;;19.90;62.40;;;;;;5064129;28;20021;-49
2023/08/09 10:29:21;;;;;;;3.72;1.00;;;19.60;65.00;;;;;;5066766;28;20032;-49
2023/08/09 10:32:05;;;;;;;6.10;1.30;;;19.70;65.10;;;;;;5043141;28;20017;-48
2023/08/09 10:34:41;;;;;;;5.68;1.77;;;20.00;66.70;;;;;;5056346;28;20369;-49
2023/08/09 10:37:09;;;;;;;4.47;1.38;;;20.50;61.70;;;;;;5062499;28;20051;-51
2023/08/09 10:39:37;;;;;;;5.97;1.33;;;20.60;62.70;;;;;;5053472;28;20091;-53
2023/08/09 10:42:22;;;;;;;5.85;1.30;;;20.50;62.90;;;;;;5042080;28;20029;-49
2023/08/09 10:45:02;;;;;;;4.95;1.02;;;20.10;61.30;;;;;;5060072;28;20054;-50
2023/08/09 10:47:30;;;;;;;6.13;1.15;;;19.90;60.00;;;;;;5041727;28;20024;-54
2023/08/09 10:50:15;;;;;;;4.00;1.17;;;19.70;61.80;;;;;;5064894;28;20092;-49
2023/08/09 10:52:48;;;;;;;3.78;1.20;;;20.10;63.40;;;;;;5063602;28;20062;-49
2023/08/09 10:55:21;;;;;;;6.60;1.27;;;20.20;58.20;;;;;;5041293;28;20032;-52
2023/08/09 10:57:52;;;;;;;2.22;0.80;;;20.10;57.80;;;;;;5062437;28;20479;-53
2023/08/09 11:00:21;;;;;;;4.03;1.00;;;19.90;58.20;;;;;;5063872;28;20044;-51
2023/08/09 11:02:51;;;;;;;3.13;1.00;;;19.60;60.10;;;;;;5063748;28;20055;-50
2023/08/09 11:05:20;;;;;;;4.43;1.17;;;19.30;59.10;;;;;;5063639;28;20395;-49
2023/08/09 11:08:12;;;;;;;4.20;1.00;;;19.60;62.70;;;;;;5048092;28;20040;-49
2023/08/09 11:10:44;;;;;;;6.25;1.20;;;20.20;60.40;;;;;;5064796;28;20416;-53
2023/08/09 11:13:15;;;;;;;2.15;0.80;;;20.50;58.10;;;;;;5057186;28;20035;-52
2023/08/09 11:15:47;;;;;;;4.38;1.17;;;20.40;56.70;;;;;;5065718;28;20477;-50
2023/08/09 11:18:17;;;;;;;6.45;0.90;;;20.60;57.80;;;;;;5062026;28;20153;-52
2023/08/09 11:20:47;;;;;;;4.85;1.70;;;20.80;58.50;;;;;;5056644;28;20041;-50
2023/08/09 11:23:13;;;;;;;3.00;0.90;;;20.90;59.70;;;;;;5059722;28;20428;-48
2023/08/09 11:25:39;;;;;;;2.72;0.70;;;21.10;52.00;;;;;;5049866;28;20104;-50
2023/08/09 11:28:14;;;;;;;3.78;0.95;;;20.60;53.10;;;;;;5066354;28;20064;-52
2023/08/09 11:30:42;;;;;;;3.35;1.00;;;20.80;55.90;;;;;;5061187;28;20081;-54
2023/08/09 11:33:09;;;;;;;4.60;1.00;;;20.80;53.90;;;;;;5044791;28;20029;-52
2023/08/09 11:35:43;;;;;;;3.45;1.30;;;20.60;56.20;;;;;;5066275;28;20060;-52
2023/08/09 11:38:12;;;;;;;5.32;1.17;;;20.50;56.00;;;;;;5063491;28;20115;-50
2023/08/09 11:40:50;;;;;;;2.93;0.90;;;20.10;56.40;;;;;;5024092;28;20024;-51
2023/08/09 11:43:18;;;;;;;4.45;1.15;;;19.70;58.40;;;;;;5063225;28;20286;-48
2023/08/09 11:45:53;;;;;;;3.45;1.08;;;19.70;60.70;;;;;;5064497;28;20117;-48
2023/08/09 11:48:48;;;;;;;6.05;1.40;;;19.90;60.80;;;;;;5062334;28;20052;-53
2023/08/09 11:51:16;;;;;;;3.10;1.08;;;19.90;60.60;;;;;;5052898;28;20098;-50
2023/08/09 11:53:44;;;;;;;7.93;2.00;;;19.90;58.80;;;;;;5059775;28;20112;-49
2023/08/09 11:56:35;;;;;;;4.72;1.48;;;19.90;60.50;;;;;;5064796;28;20031;-51
2023/08/09 11:59:04;;;;;;;3.72;1.38;;;19.70;62.50;;;;;;5053148;28;20029;-49
2023/08/09 12:01:44;;;;;;;4.18;1.33;;;19.90;64.70;;;;;;5067757;28;20033;-51
2023/08/09 12:04:17;;;;;;;4.40;1.20;;;20.40;63.50;;;;;;5069275;28;20036;-51
2023/08/09 12:07:05;;;;;;;6.22;1.83;;;20.50;60.90;;;;;;5061976;28;20512;-50
2023/08/09 12:09:49;;;;;;;3.58;1.40;;;20.20;61.30;;;;;;5064984;28;20395;-50
2023/08/09 12:12:34;;;;;;;5.95;1.40;;;19.90;62.70;;;;;;5070066;28;20064;-49
2023/08/09 12:15:02;;;;;;;5.80;1.50;;;20.20;64.60;;;;;;5064091;28;20040;-49
2023/08/09 12:17:32;;;;;;;5.05;1.83;;;20.30;63.70;;;;;;5068621;28;20028;-49
2023/08/09 12:20:02;;;;;;;6.80;1.50;;;20.50;62.60;;;;;;5065469;28;20029;-54
2023/08/09 12:22:29;;;;;;;4.22;1.85;;;20.60;64.60;;;;;;5062707;28;20032;-51
2023/08/09 12:24:56;;;;;;;4.50;1.55;;;20.40;62.60;;;;;;5062265;28;20083;-50
2023/08/09 12:27:24;;;;;;;2.20;1.00;;;20.20;62.40;;;;;;5067373;28;20508;-49
2023/08/09 12:29:51;;;;;;;6.00;1.10;;;19.90;61.50;;;;;;5061065;28;20107;-53
2023/08/09 12:32:19;;;;;;;2.42;1.40;;;19.60;59.40;;;;;;5054412;28;20123;-48
2023/08/09 12:34:48;;;;;;;4.05;1.30;;;19.90;60.50;;;;;;5059134;28;20031;-50
2023/08/09 12:37:15;;;;;;;5.33;1.43;;;20.10;60.10;;;;;;5068251;28;20063;-49
2023/08/09 12:39:42;;;;;;;7.03;1.65;;;19.80;59.60;;;;;;5062913;28;20021;-50
2023/08/09 12:42:10;;;;;;;5.78;1.20;;;19.50;60.20;;;;;;5066065;28;20039;-52
2023/08/09 12:44:38;;;;;;;3.72;1.23;;;19.60;60.80;;;;;;5068457;28;20036;-51
2023/08/09 12:47:06;;;;;;;6.97;2.15;;;19.60;63.50;;;;;;5067622;28;20021;-52
2023/08/09 12:49:33;;;;;;;9.68;2.13;;;19.20;64.90;;;;;;5060546;28;20059;-52
2023/08/09 12:52:01;;;;;;;6.53;1.83;;;19.00;65.90;;;;;;5067620;28;20054;-49
2023/08/09 12:54:27;;;;;;;4.22;1.60;;;19.20;66.20;;;;;;5060944;28;20473;-52
2023/08/09 12:56:54;;;;;;;5.85;1.42;;;19.40;63.40;;;;;;5064401;28;20060;-49